sensor_id;sensor_type;location;lat;lon;timestamp;temperature;humidity
6178;DHT22;3122;48.208;11.174;2023-08-08T00:02:31;11.60;1.00
6178;DHT22;3122;48.208;11.174;2023-08-08T00:07:32;11.70;1.00
6178;DHT22;3122;48.208;11.174;2023-08-08T00:12:32;11.70;1.00
6178;DHT22;3122;48.208;11.174;2023-08-08T00:17:33;11.70;1.00
6178;DHT22;3122;48.208;11.174;2023-08-08T00:22:33;11.70;1.00
6178;DHT22;3122;48.208;11.174;2023-08-08T00:27:34;11.80;1.00
6178;DHT22;3122;48.208;11.174;2023-08-08T00:32:35;11.90;1.00
6178;DHT22;3122;48.208;11.174;2023-08-08T00:37:35;11.90;1.00
6178;DHT22;3122;48.208;11.174;2023-08-08T00:42:36;11.80;1.00
6178;DHT22;3122;48.208;11.174;2023-08-08T00:47:37;11.80;1.00
6178;DHT22;3122;48.208;11.174;2023-08-08T00:52:38;11.70;1.00
6178;DHT22;3122;48.208;11.174;2023-08-08T00:57:40;11.60;1.00
6178;DHT22;3122;48.208;11.174;2023-08-08T01:02:40;11.60;1.00
6178;DHT22;3122;48.208;11.174;2023-08-08T01:12:56;11.50;1.00
6178;DHT22;3122;48.208;11.174;2023-08-08T01:17:59;11.50;1.00
6178;DHT22;3122;48.208;11.174;2023-08-08T01:23:10;11.50;1.00
6178;DHT22;3122;48.208;11.174;2023-08-08T01:28:13;11.40;1.00
6178;DHT22;3122;48.208;11.174;2023-08-08T01:33:13;11.40;1.00
6178;DHT22;3122;48.208;11.174;2023-08-08T01:38:20;11.30;1.00
6178;DHT22;3122;48.208;11.174;2023-08-08T01:43:24;11.40;1.00
6178;DHT22;3122;48.208;11.174;2023-08-08T01:48:24;11.40;1.00
6178;DHT22;3122;48.208;11.174;2023-08-08T01:53:25;11.50;1.00
6178;DHT22;3122;48.208;11.174;2023-08-08T01:58:26;11.30;1.00
6178;DHT22;3122;48.208;11.174;2023-08-08T02:03:26;11.30;1.00
6178;DHT22;3122;48.208;11.174;2023-08-08T02:08:27;11.20;1.00
6178;DHT22;3122;48.208;11.174;2023-08-08T02:13:27;11.30;1.00
6178;DHT22;3122;48.208;11.174;2023-08-08T02:18:28;11.30;1.00
6178;DHT22;3122;48.208;11.174;2023-08-08T02:23:28;11.30;1.00
6178;DHT22;3122;48.208;11.174;2023-08-08T02:28:29;11.20;1.00
6178;DHT22;3122;48.208;11.174;2023-08-08T02:33:30;11.30;1.00
6178;DHT22;3122;48.208;11.174;2023-08-08T02:38:30;11.20;1.00
6178;DHT22;3122;48.208;11.174;2023-08-08T02:43:31;11.30;1.00
6178;DHT22;3122;48.208;11.174;2023-08-08T02:48:32;11.30;1.00
6178;DHT22;3122;48.208;11.174;2023-08-08T02:53:32;11.30;1.00
6178;DHT22;3122;48.208;11.174;2023-08-08T02:58:33;11.20;1.00
6178;DHT22;3122;48.208;11.174;2023-08-08T03:03:33;11.30;1.00
6178;DHT22;3122;48.208;11.174;2023-08-08T03:08:34;11.40;1.00
6178;DHT22;3122;48.208;11.174;2023-08-08T03:13:34;11.40;1.00
6178;DHT22;3122;48.208;11.174;2023-08-08T03:18:37;11.40;1.00
6178;DHT22;3122;48.208;11.174;2023-08-08T03:23:38;11.50;1.00
6178;DHT22;3122;48.208;11.174;2023-08-08T03:28:38;11.60;1.00
6178;DHT22;3122;48.208;11.174;2023-08-08T03:33:39;11.60;1.00
6178;DHT22;3122;48.208;11.174;2023-08-08T03:38:39;11.60;1.00
6178;DHT22;3122;48.208;11.174;2023-08-08T03:43:40;11.70;1.00
6178;DHT22;3122;48.208;11.174;2023-08-08T03:48:40;11.60;1.00
6178;DHT22;3122;48.208;11.174;2023-08-08T03:53:41;11.60;1.00
6178;DHT22;3122;48.208;11.174;2023-08-08T03:58:42;11.50;1.00
6178;DHT22;3122;48.208;11.174;2023-08-08T04:03:42;11.60;1.00
6178;DHT22;3122;48.208;11.174;2023-08-08T04:08:43;11.60;1.00
6178;DHT22;3122;48.208;11.174;2023-08-08T04:13:43;11.70;1.00
6178;DHT22;3122;48.208;11.174;2023-08-08T04:18:44;11.70;1.00
6178;DHT22;3122;48.208;11.174;2023-08-08T04:23:44;11.70;1.00
6178;DHT22;3122;48.208;11.174;2023-08-08T04:28:45;11.80;1.00
6178;DHT22;3122;48.208;11.174;2023-08-08T04:33:45;11.80;1.00
6178;DHT22;3122;48.208;11.174;2023-08-08T04:38:46;11.80;1.00
6178;DHT22;3122;48.208;11.174;2023-08-08T04:43:46;11.90;1.00
6178;DHT22;3122;48.208;11.174;2023-08-08T04:48:47;11.90;1.00
6178;DHT22;3122;48.208;11.174;2023-08-08T04:53:47;11.90;1.00
6178;DHT22;3122;48.208;11.174;2023-08-08T04:58:48;11.90;1.00
6178;DHT22;3122;48.208;11.174;2023-08-08T05:03:48;12.00;1.00
6178;DHT22;3122;48.208;11.174;2023-08-08T05:08:52;12.00;1.00
6178;DHT22;3122;48.208;11.174;2023-08-08T05:13:52;12.10;1.00
6178;DHT22;3122;48.208;11.174;2023-08-08T05:18:53;12.10;1.00
6178;DHT22;3122;48.208;11.174;2023-08-08T05:23:53;12.20;1.00
6178;DHT22;3122;48.208;11.174;2023-08-08T05:28:54;12.30;1.00
6178;DHT22;3122;48.208;11.174;2023-08-08T05:33:55;12.60;1.00
6178;DHT22;3122;48.208;11.174;2023-08-08T05:38:55;12.70;1.00
6178;DHT22;3122;48.208;11.174;2023-08-08T05:43:56;12.80;1.00
6178;DHT22;3122;48.208;11.174;2023-08-08T05:48:56;12.90;1.00
6178;DHT22;3122;48.208;11.174;2023-08-08T05:53:57;13.00;1.00
6178;DHT22;3122;48.208;11.174;2023-08-08T05:58:57;13.10;1.00
6178;DHT22;3122;48.208;11.174;2023-08-08T06:03:58;13.10;1.00
6178;DHT22;3122;48.208;11.174;2023-08-08T06:08:59;13.20;1.00
6178;DHT22;3122;48.208;11.174;2023-08-08T06:14:00;13.40;1.00
6178;DHT22;3122;48.208;11.174;2023-08-08T06:19:00;13.30;1.00
6178;DHT22;3122;48.208;11.174;2023-08-08T06:24:01;13.50;1.00
6178;DHT22;3122;48.208;11.174;2023-08-08T06:29:02;13.60;1.00
6178;DHT22;3122;48.208;11.174;2023-08-08T06:34:02;13.70;1.00
6178;DHT22;3122;48.208;11.174;2023-08-08T06:39:03;13.80;1.00
6178;DHT22;3122;48.208;11.174;2023-08-08T06:44:04;14.00;1.00
6178;DHT22;3122;48.208;11.174;2023-08-08T06:49:06;14.20;1.00
6178;DHT22;3122;48.208;11.174;2023-08-08T06:54:07;14.30;1.00
6178;DHT22;3122;48.208;11.174;2023-08-08T06:59:08;14.50;1.00
6178;DHT22;3122;48.208;11.174;2023-08-08T07:04:09;14.70;1.00
6178;DHT22;3122;48.208;11.174;2023-08-08T07:09:09;15.00;1.00
6178;DHT22;3122;48.208;11.174;2023-08-08T07:14:14;15.00;1.00
6178;DHT22;3122;48.208;11.174;2023-08-08T07:19:15;14.90;1.00
6178;DHT22;3122;48.208;11.174;2023-08-08T07:24:16;14.70;1.00
6178;DHT22;3122;48.208;11.174;2023-08-08T07:29:17;14.90;1.00
6178;DHT22;3122;48.208;11.174;2023-08-08T07:34:17;15.10;1.00
6178;DHT22;3122;48.208;11.174;2023-08-08T07:39:18;15.20;1.00
6178;DHT22;3122;48.208;11.174;2023-08-08T07:44:19;15.30;1.00
6178;DHT22;3122;48.208;11.174;2023-08-08T07:49:19;15.40;1.00
6178;DHT22;3122;48.208;11.174;2023-08-08T07:54:20;15.60;1.00
6178;DHT22;3122;48.208;11.174;2023-08-08T07:59:20;15.80;1.00
6178;DHT22;3122;48.208;11.174;2023-08-08T08:04:21;16.20;1.00
6178;DHT22;3122;48.208;11.174;2023-08-08T08:09:21;16.20;1.00
6178;DHT22;3122;48.208;11.174;2023-08-08T08:14:22;16.40;1.00
6178;DHT22;3122;48.208;11.174;2023-08-08T08:19:23;16.40;1.00
6178;DHT22;3122;48.208;11.174;2023-08-08T08:24:23;16.60;1.00
6178;DHT22;3122;48.208;11.174;2023-08-08T08:29:24;16.80;1.00
6178;DHT22;3122;48.208;11.174;2023-08-08T08:34:24;16.80;1.00
6178;DHT22;3122;48.208;11.174;2023-08-08T08:39:25;17.00;1.00
6178;DHT22;3122;48.208;11.174;2023-08-08T08:44:27;17.10;1.00
6178;DHT22;3122;48.208;11.174;2023-08-08T08:49:30;17.30;1.00
6178;DHT22;3122;48.208;11.174;2023-08-08T08:54:31;17.50;1.00
6178;DHT22;3122;48.208;11.174;2023-08-08T08:59:32;17.50;1.00
6178;DHT22;3122;48.208;11.174;2023-08-08T09:04:34;17.30;1.00
6178;DHT22;3122;48.208;11.174;2023-08-08T09:09:35;17.40;1.00
6178;DHT22;3122;48.208;11.174;2023-08-08T09:14:40;17.70;1.00
6178;DHT22;3122;48.208;11.174;2023-08-08T09:19:45;17.90;1.00
6178;DHT22;3122;48.208;11.174;2023-08-08T09:24:47;18.10;1.00
6178;DHT22;3122;48.208;11.174;2023-08-08T09:29:48;18.40;1.00
6178;DHT22;3122;48.208;11.174;2023-08-08T09:34:48;18.40;1.00
6178;DHT22;3122;48.208;11.174;2023-08-08T09:39:59;18.10;1.00
6178;DHT22;3122;48.208;11.174;2023-08-08T09:45:00;18.60;1.00
6178;DHT22;3122;48.208;11.174;2023-08-08T09:50:02;18.50;1.00
6178;DHT22;3122;48.208;11.174;2023-08-08T09:55:05;18.30;1.00
6178;DHT22;3122;48.208;11.174;2023-08-08T10:00:07;18.40;1.00
6178;DHT22;3122;48.208;11.174;2023-08-08T10:05:15;18.50;1.00
6178;DHT22;3122;48.208;11.174;2023-08-08T10:10:17;18.50;1.00
6178;DHT22;3122;48.208;11.174;2023-08-08T10:15:19;18.70;1.00
6178;DHT22;3122;48.208;11.174;2023-08-08T10:20:25;18.90;1.00
6178;DHT22;3122;48.208;11.174;2023-08-08T10:25:29;19.10;1.00
6178;DHT22;3122;48.208;11.174;2023-08-08T10:30:45;18.80;1.00
6178;DHT22;3122;48.208;11.174;2023-08-08T10:36:06;19.00;1.00
6178;DHT22;3122;48.208;11.174;2023-08-08T10:41:11;19.20;1.00
6178;DHT22;3122;48.208;11.174;2023-08-08T10:46:12;19.40;1.00
6178;DHT22;3122;48.208;11.174;2023-08-08T10:51:14;19.30;1.00
6178;DHT22;3122;48.208;11.174;2023-08-08T10:56:14;19.40;1.00
6178;DHT22;3122;48.208;11.174;2023-08-08T11:01:17;19.20;1.00
6178;DHT22;3122;48.208;11.174;2023-08-08T11:06:18;19.30;1.00
6178;DHT22;3122;48.208;11.174;2023-08-08T11:11:19;19.60;1.00
6178;DHT22;3122;48.208;11.174;2023-08-08T11:16:19;19.50;1.00
6178;DHT22;3122;48.208;11.174;2023-08-08T11:21:20;19.70;1.00
6178;DHT22;3122;48.208;11.174;2023-08-08T11:26:23;19.80;1.00
6178;DHT22;3122;48.208;11.174;2023-08-08T11:31:24;19.70;1.00
6178;DHT22;3122;48.208;11.174;2023-08-08T11:36:28;19.70;1.00
6178;DHT22;3122;48.208;11.174;2023-08-08T11:41:29;19.80;1.00
6178;DHT22;3122;48.208;11.174;2023-08-08T11:46:30;20.10;1.00
6178;DHT22;3122;48.208;11.174;2023-08-08T11:51:32;20.20;1.00
6178;DHT22;3122;48.208;11.174;2023-08-08T11:56:34;20.20;1.00
6178;DHT22;3122;48.208;11.174;2023-08-08T12:01:35;20.20;1.00
6178;DHT22;3122;48.208;11.174;2023-08-08T12:06:39;20.60;1.00
6178;DHT22;3122;48.208;11.174;2023-08-08T12:11:40;20.60;1.00
6178;DHT22;3122;48.208;11.174;2023-08-08T12:16:42;20.60;1.00
6178;DHT22;3122;48.208;11.174;2023-08-08T12:21:44;20.60;1.00
6178;DHT22;3122;48.208;11.174;2023-08-08T12:26:44;20.60;1.00
6178;DHT22;3122;48.208;11.174;2023-08-08T12:31:45;20.80;1.00
6178;DHT22;3122;48.208;11.174;2023-08-08T12:36:45;21.00;1.00
6178;DHT22;3122;48.208;11.174;2023-08-08T12:41:46;21.00;1.00
6178;DHT22;3122;48.208;11.174;2023-08-08T12:46:46;20.70;1.00
6178;DHT22;3122;48.208;11.174;2023-08-08T12:51:49;20.40;1.00
6178;DHT22;3122;48.208;11.174;2023-08-08T12:56:50;20.70;1.00
6178;DHT22;3122;48.208;11.174;2023-08-08T13:01:50;20.70;1.00
6178;DHT22;3122;48.208;11.174;2023-08-08T13:06:51;20.80;1.00
6178;DHT22;3122;48.208;11.174;2023-08-08T13:11:52;20.90;1.00
6178;DHT22;3122;48.208;11.174;2023-08-08T13:16:52;20.90;1.00
6178;DHT22;3122;48.208;11.174;2023-08-08T13:21:53;20.80;1.00
6178;DHT22;3122;48.208;11.174;2023-08-08T13:26:54;20.60;1.00
6178;DHT22;3122;48.208;11.174;2023-08-08T13:31:55;20.70;1.00
6178;DHT22;3122;48.208;11.174;2023-08-08T13:36:55;21.20;1.00
6178;DHT22;3122;48.208;11.174;2023-08-08T13:41:56;21.30;1.00
6178;DHT22;3122;48.208;11.174;2023-08-08T13:46:56;21.20;1.00
6178;DHT22;3122;48.208;11.174;2023-08-08T13:51:58;21.20;1.00
6178;DHT22;3122;48.208;11.174;2023-08-08T13:56:58;21.20;1.00
6178;DHT22;3122;48.208;11.174;2023-08-08T14:01:59;21.00;1.00
6178;DHT22;3122;48.208;11.174;2023-08-08T14:07:00;21.00;1.00
6178;DHT22;3122;48.208;11.174;2023-08-08T14:12:00;21.10;1.00
6178;DHT22;3122;48.208;11.174;2023-08-08T14:17:02;20.90;1.00
6178;DHT22;3122;48.208;11.174;2023-08-08T14:22:02;21.30;1.00
6178;DHT22;3122;48.208;11.174;2023-08-08T14:27:03;21.30;1.00
6178;DHT22;3122;48.208;11.174;2023-08-08T14:32:04;21.50;1.00
6178;DHT22;3122;48.208;11.174;2023-08-08T14:37:06;20.90;1.00
6178;DHT22;3122;48.208;11.174;2023-08-08T14:42:06;21.10;1.00
6178;DHT22;3122;48.208;11.174;2023-08-08T14:47:07;21.50;1.00
6178;DHT22;3122;48.208;11.174;2023-08-08T14:52:08;21.20;1.00
6178;DHT22;3122;48.208;11.174;2023-08-08T14:57:09;20.90;1.00
6178;DHT22;3122;48.208;11.174;2023-08-08T15:02:09;20.70;1.00
6178;DHT22;3122;48.208;11.174;2023-08-08T15:07:10;20.70;1.00
6178;DHT22;3122;48.208;11.174;2023-08-08T15:12:14;21.20;1.00
6178;DHT22;3122;48.208;11.174;2023-08-08T15:17:16;21.30;1.00
6178;DHT22;3122;48.208;11.174;2023-08-08T15:22:17;21.20;1.00
6178;DHT22;3122;48.208;11.174;2023-08-08T15:27:17;21.10;1.00
6178;DHT22;3122;48.208;11.174;2023-08-08T15:32:18;21.10;1.00
6178;DHT22;3122;48.208;11.174;2023-08-08T15:37:19;21.60;1.00
6178;DHT22;3122;48.208;11.174;2023-08-08T15:42:19;21.50;1.00
6178;DHT22;3122;48.208;11.174;2023-08-08T15:47:20;21.90;1.00
6178;DHT22;3122;48.208;11.174;2023-08-08T15:52:21;21.70;1.00
6178;DHT22;3122;48.208;11.174;2023-08-08T15:57:21;21.40;1.00
6178;DHT22;3122;48.208;11.174;2023-08-08T16:02:22;21.40;1.00
6178;DHT22;3122;48.208;11.174;2023-08-08T16:07:23;21.10;1.00
6178;DHT22;3122;48.208;11.174;2023-08-08T16:12:24;20.80;1.00
6178;DHT22;3122;48.208;11.174;2023-08-08T16:17:24;20.40;1.00
6178;DHT22;3122;48.208;11.174;2023-08-08T16:22:26;20.30;1.00
6178;DHT22;3122;48.208;11.174;2023-08-08T16:27:27;20.50;1.00
6178;DHT22;3122;48.208;11.174;2023-08-08T16:32:29;20.30;1.00
6178;DHT22;3122;48.208;11.174;2023-08-08T16:37:29;20.20;1.00
6178;DHT22;3122;48.208;11.174;2023-08-08T16:42:30;19.90;1.00
6178;DHT22;3122;48.208;11.174;2023-08-08T16:47:30;19.90;1.00
6178;DHT22;3122;48.208;11.174;2023-08-08T16:52:31;19.80;1.00
6178;DHT22;3122;48.208;11.174;2023-08-08T16:57:31;19.70;1.00
6178;DHT22;3122;48.208;11.174;2023-08-08T17:02:32;19.70;1.00
6178;DHT22;3122;48.208;11.174;2023-08-08T17:07:33;19.70;1.00
6178;DHT22;3122;48.208;11.174;2023-08-08T17:12:33;19.60;1.00
6178;DHT22;3122;48.208;11.174;2023-08-08T17:17:34;19.60;1.00
6178;DHT22;3122;48.208;11.174;2023-08-08T17:22:35;19.60;1.00
6178;DHT22;3122;48.208;11.174;2023-08-08T17:27:36;19.60;1.00
6178;DHT22;3122;48.208;11.174;2023-08-08T17:32:37;19.90;1.00
6178;DHT22;3122;48.208;11.174;2023-08-08T17:37:37;19.80;1.00
6178;DHT22;3122;48.208;11.174;2023-08-08T17:42:38;19.70;1.00
6178;DHT22;3122;48.208;11.174;2023-08-08T17:47:39;19.40;1.00
6178;DHT22;3122;48.208;11.174;2023-08-08T17:52:40;19.20;1.00
6178;DHT22;3122;48.208;11.174;2023-08-08T17:57:40;19.10;1.00
6178;DHT22;3122;48.208;11.174;2023-08-08T18:02:41;19.00;1.00
6178;DHT22;3122;48.208;11.174;2023-08-08T18:07:41;18.80;1.00
6178;DHT22;3122;48.208;11.174;2023-08-08T18:12:44;18.80;1.00
6178;DHT22;3122;48.208;11.174;2023-08-08T18:17:44;18.80;1.00
6178;DHT22;3122;48.208;11.174;2023-08-08T18:22:45;18.70;1.00
6178;DHT22;3122;48.208;11.174;2023-08-08T18:27:45;18.70;1.00
6178;DHT22;3122;48.208;11.174;2023-08-08T18:32:46;18.50;1.00
6178;DHT22;3122;48.208;11.174;2023-08-08T18:37:46;18.40;1.00
6178;DHT22;3122;48.208;11.174;2023-08-08T18:42:47;18.30;1.00
6178;DHT22;3122;48.208;11.174;2023-08-08T18:47:48;18.20;1.00
6178;DHT22;3122;48.208;11.174;2023-08-08T18:52:48;18.20;1.00
6178;DHT22;3122;48.208;11.174;2023-08-08T18:57:49;18.10;1.00
6178;DHT22;3122;48.208;11.174;2023-08-08T19:02:50;18.10;1.00
6178;DHT22;3122;48.208;11.174;2023-08-08T19:07:50;18.00;1.00
6178;DHT22;3122;48.208;11.174;2023-08-08T19:12:51;17.90;1.00
6178;DHT22;3122;48.208;11.174;2023-08-08T19:17:51;17.90;1.00
6178;DHT22;3122;48.208;11.174;2023-08-08T19:22:52;17.90;1.00
6178;DHT22;3122;48.208;11.174;2023-08-08T19:27:54;17.80;1.00
6178;DHT22;3122;48.208;11.174;2023-08-08T19:32:54;17.80;1.00
6178;DHT22;3122;48.208;11.174;2023-08-08T19:37:55;17.80;1.00
6178;DHT22;3122;48.208;11.174;2023-08-08T19:42:56;17.70;1.00
6178;DHT22;3122;48.208;11.174;2023-08-08T19:47:56;17.70;1.00
6178;DHT22;3122;48.208;11.174;2023-08-08T19:52:57;17.50;1.00
6178;DHT22;3122;48.208;11.174;2023-08-08T19:57:57;17.50;1.00
6178;DHT22;3122;48.208;11.174;2023-08-08T20:03:01;17.30;1.00
6178;DHT22;3122;48.208;11.174;2023-08-08T20:08:02;17.10;1.00
6178;DHT22;3122;48.208;11.174;2023-08-08T20:13:03;17.20;1.00
6178;DHT22;3122;48.208;11.174;2023-08-08T20:18:03;16.90;1.00
6178;DHT22;3122;48.208;11.174;2023-08-08T20:23:04;16.90;1.00
6178;DHT22;3122;48.208;11.174;2023-08-08T20:28:05;16.80;1.00
6178;DHT22;3122;48.208;11.174;2023-08-08T20:33:06;16.60;1.00
6178;DHT22;3122;48.208;11.174;2023-08-08T20:38:07;16.40;1.00
6178;DHT22;3122;48.208;11.174;2023-08-08T20:43:08;16.40;1.00
6178;DHT22;3122;48.208;11.174;2023-08-08T20:48:09;16.30;1.00
6178;DHT22;3122;48.208;11.174;2023-08-08T20:53:10;16.20;1.00
6178;DHT22;3122;48.208;11.174;2023-08-08T20:58:11;16.10;1.00
6178;DHT22;3122;48.208;11.174;2023-08-08T21:03:12;16.10;1.00
6178;DHT22;3122;48.208;11.174;2023-08-08T21:08:13;16.10;1.00
6178;DHT22;3122;48.208;11.174;2023-08-08T21:13:13;16.20;1.00
6178;DHT22;3122;48.208;11.174;2023-08-08T21:18:14;16.10;1.00
6178;DHT22;3122;48.208;11.174;2023-08-08T21:23:14;16.00;1.00
6178;DHT22;3122;48.208;11.174;2023-08-08T21:28:15;15.90;1.00
6178;DHT22;3122;48.208;11.174;2023-08-08T21:33:15;15.80;1.00
6178;DHT22;3122;48.208;11.174;2023-08-08T21:38:16;15.70;1.00
6178;DHT22;3122;48.208;11.174;2023-08-08T21:43:17;15.60;1.00
6178;DHT22;3122;48.208;11.174;2023-08-08T21:48:17;15.50;1.00
6178;DHT22;3122;48.208;11.174;2023-08-08T21:53:18;15.40;1.00
6178;DHT22;3122;48.208;11.174;2023-08-08T21:58:18;15.30;1.00
6178;DHT22;3122;48.208;11.174;2023-08-08T22:03:19;15.30;1.00
6178;DHT22;3122;48.208;11.174;2023-08-08T22:08:20;15.30;1.00
6178;DHT22;3122;48.208;11.174;2023-08-08T22:13:20;15.30;1.00
6178;DHT22;3122;48.208;11.174;2023-08-08T22:18:21;15.20;1.00
6178;DHT22;3122;48.208;11.174;2023-08-08T22:23:22;15.00;1.00
6178;DHT22;3122;48.208;11.174;2023-08-08T22:28:22;15.00;1.00
6178;DHT22;3122;48.208;11.174;2023-08-08T22:33:23;14.90;1.00
6178;DHT22;3122;48.208;11.174;2023-08-08T22:38:23;14.90;1.00
6178;DHT22;3122;48.208;11.174;2023-08-08T22:43:24;14.80;1.00
6178;DHT22;3122;48.208;11.174;2023-08-08T22:48:25;14.90;1.00
6178;DHT22;3122;48.208;11.174;2023-08-08T22:53:25;14.90;1.00
6178;DHT22;3122;48.208;11.174;2023-08-08T22:58:26;14.90;1.00
6178;DHT22;3122;48.208;11.174;2023-08-08T23:03:26;14.80;1.00
6178;DHT22;3122;48.208;11.174;2023-08-08T23:08:28;14.80;1.00
6178;DHT22;3122;48.208;11.174;2023-08-08T23:13:29;14.60;1.00
6178;DHT22;3122;48.208;11.174;2023-08-08T23:18:30;14.60;1.00
6178;DHT22;3122;48.208;11.174;2023-08-08T23:23:30;14.50;1.00
6178;DHT22;3122;48.208;11.174;2023-08-08T23:28:31;14.40;1.00
6178;DHT22;3122;48.208;11.174;2023-08-08T23:33:31;14.30;1.00
6178;DHT22;3122;48.208;11.174;2023-08-08T23:38:32;14.30;1.00
6178;DHT22;3122;48.208;11.174;2023-08-08T23:43:32;14.10;1.00
6178;DHT22;3122;48.208;11.174;2023-08-08T23:48:33;14.10;1.00
6178;DHT22;3122;48.208;11.174;2023-08-08T23:53:33;14.10;1.00
6178;DHT22;3122;48.208;11.174;2023-08-08T23:58:34;14.20;1.00
